Time;durP1;ratioP1;P1;durP2;ratioP2;P2;SDS_P1;SDS_P2;PMS_P1;PMS_P2;Temp;Humidity;BMP_temperature;BMP_pressure;BME280_temperature;BME280_humidity;BME280_pressure;Samples;Min_cycle;Max_cycle;Signal;HPM_P1;HPM_P2
2023/10/27 00:00:18;;;;;;;20.07;14.33;;;;;;;10.18;95.58;98998.91;5075127;28;20222;-71
2023/10/27 00:02:45;;;;;;;20.30;14.77;;;;;;;10.19;95.46;98995.22;5074808;28;20191;-71
2023/10/27 00:05:11;;;;;;;18.23;14.13;;;;;;;10.19;95.35;99000.56;5074752;28;20269;-71
2023/10/27 00:07:38;;;;;;;20.27;14.10;;;;;;;10.18;95.34;98998.91;5074416;28;20202;-71
2023/10/27 00:10:05;;;;;;;22.97;15.73;;;;;;;10.13;95.20;98992.47;5074684;28;20229;-71
2023/10/27 00:12:32;;;;;;;21.03;14.50;;;;;;;10.09;95.28;98984.84;5074297;28;20265;-71
2023/10/27 00:14:59;;;;;;;20.20;14.53;;;;;;;10.06;94.78;98985.19;5074799;28;20256;-71
2023/10/27 00:17:25;;;;;;;19.33;14.30;;;;;;;9.97;95.06;98980.19;5074321;28;20632;-71
2023/10/27 00:19:52;;;;;;;18.27;15.87;;;;;;;9.92;94.65;98975.44;5074178;28;20183;-71
2023/10/27 00:22:18;;;;;;;17.77;14.00;;;;;;;9.87;94.82;98966.31;5074387;28;20195;-71
2023/10/27 00:24:45;;;;;;;20.23;14.60;;;;;;;9.82;95.07;98974.91;5074396;28;20197;-71
2023/10/27 00:27:11;;;;;;;23.97;16.07;;;;;;;9.80;95.31;98982.25;5074042;28;20562;-71
2023/10/27 00:29:38;;;;;;;30.77;16.90;;;;;;;9.77;95.08;98977.31;5073366;28;20194;-71
2023/10/27 00:32:04;;;;;;;21.73;15.47;;;;;;;9.74;95.19;98980.34;5074579;28;20186;-71
2023/10/27 00:34:31;;;;;;;26.53;17.90;;;;;;;9.71;95.33;98972.75;5074464;28;20650;-72
2023/10/27 00:36:57;;;;;;;19.13;14.30;;;;;;;9.73;95.26;98980.53;5073842;28;20281;-71
2023/10/27 00:39:24;;;;;;;15.07;12.97;;;;;;;9.74;95.42;98983.03;5074067;28;20193;-71
2023/10/27 00:41:50;;;;;;;17.43;14.33;;;;;;;9.74;95.43;98980.34;5073778;28;20244;-71
2023/10/27 00:44:17;;;;;;;17.53;14.23;;;;;;;9.74;95.31;98972.34;5074233;28;20218;-71
2023/10/27 00:46:44;;;;;;;15.00;12.37;;;;;;;9.71;95.04;98974.56;5073620;28;20206;-71
2023/10/27 00:49:11;;;;;;;14.60;11.90;;;;;;;9.68;95.42;98975.75;5073620;28;20646;-71
2023/10/27 00:51:38;;;;;;;13.50;12.07;;;;;;;9.66;95.36;98979.66;5072950;28;20611;-71
2023/10/27 00:54:08;;;;;;;13.50;12.07;;;;;;;9.65;95.44;98984.16;5073846;28;20178;-71
2023/10/27 00:56:36;;;;;;;12.50;11.10;;;;;;;9.61;95.21;98986.38;5073841;28;20575;-71
2023/10/27 00:59:03;;;;;;;17.33;13.43;;;;;;;9.57;95.05;98984.28;5073783;28;20274;-71
2023/10/27 01:01:29;;;;;;;15.23;13.60;;;;;;;9.53;95.03;98975.81;5073479;28;20201;-71
2023/10/27 01:03:56;;;;;;;16.43;13.77;;;;;;;9.49;95.32;98971.03;5073395;28;20256;-71
2023/10/27 01:06:23;;;;;;;20.43;15.27;;;;;;;9.47;95.22;98973.06;5073334;28;20203;-71
2023/10/27 01:08:50;;;;;;;28.60;15.20;;;;;;;9.49;95.32;98965.72;5073896;28;20545;-71
2023/10/27 01:11:18;;;;;;;24.10;15.77;;;;;;;9.48;95.35;98967.53;5073365;28;20190;-71
2023/10/27 01:13:44;;;;;;;32.97;17.93;;;;;;;9.48;95.44;98964.06;5072022;28;20642;-71
2023/10/27 01:16:11;;;;;;;19.00;15.13;;;;;;;9.50;95.82;98970.03;5073354;28;20214;-71
2023/10/27 01:18:38;;;;;;;23.80;16.50;;;;;;;9.53;95.75;98967.00;5073547;28;20647;-71
2023/10/27 01:21:04;;;;;;;31.00;17.57;;;;;;;9.52;95.52;98966.16;5073774;28;20189;-71
2023/10/27 01:23:31;;;;;;;27.87;17.23;;;;;;;9.51;95.70;98969.00;5072102;28;20214;-71
2023/10/27 01:25:57;;;;;;;23.90;15.30;;;;;;;9.54;95.74;98963.31;5073343;28;20202;-70
2023/10/27 01:28:25;;;;;;;30.23;16.57;;;;;;;9.54;96.03;98974.81;5072170;28;20617;-71
2023/10/27 01:30:51;;;;;;;28.87;16.37;;;;;;;9.55;96.14;98972.94;5071844;28;20676;-71
2023/10/27 01:33:18;;;;;;;26.87;16.17;;;;;;;9.53;96.19;98967.81;5071870;28;20187;-71
2023/10/27 01:35:45;;;;;;;23.20;16.33;;;;;;;9.56;96.14;98969.28;5071787;28;20194;-71
2023/10/27 01:38:11;;;;;;;26.50;16.13;;;;;;;9.59;96.22;98961.72;5073101;28;20567;-71
2023/10/27 01:40:38;;;;;;;24.13;16.17;;;;;;;9.60;96.15;98957.22;5071784;28;20598;-71
2023/10/27 01:43:05;;;;;;;28.20;16.37;;;;;;;9.62;96.21;98957.84;5073189;28;20214;-71
2023/10/27 01:45:32;;;;;;;25.50;15.80;;;;;;;9.63;96.02;98964.84;5072956;28;20190;-70
2023/10/27 01:47:58;;;;;;;25.63;16.00;;;;;;;9.64;96.16;98959.31;5071717;28;20191;-71
2023/10/27 01:50:25;;;;;;;23.63;15.93;;;;;;;9.66;96.14;98959.13;5072991;28;20186;-71
2023/10/27 01:52:51;;;;;;;25.90;16.33;;;;;;;9.69;96.23;98957.91;5072947;28;20205;-71
2023/10/27 01:55:18;;;;;;;20.40;14.47;;;;;;;9.69;96.17;98958.75;5073517;28;20193;-71
2023/10/27 01:57:44;;;;;;;24.83;15.73;;;;;;;9.70;96.24;98959.56;5072838;28;20203;-71
2023/10/27 02:00:11;;;;;;;23.33;15.70;;;;;;;9.73;96.22;98954.69;5071609;28;20564;-71
2023/10/27 02:02:39;;;;;;;20.37;14.40;;;;;;;9.76;96.44;98959.63;5074861;28;20197;-71
2023/10/27 02:05:07;;;;;;;18.37;14.43;;;;;;;9.80;96.50;98957.44;5075518;28;20265;-71
2023/10/27 02:07:34;;;;;;;16.27;13.73;;;;;;;9.83;96.46;98952.53;5076958;28;20209;-71
2023/10/27 02:10:00;;;;;;;16.30;14.13;;;;;;;9.86;96.27;98956.66;5075626;28;20190;-71
2023/10/27 02:12:27;;;;;;;24.00;15.43;;;;;;;9.87;96.41;98961.00;5076671;28;20187;-71
2023/10/27 02:14:54;;;;;;;19.83;13.93;;;;;;;9.87;96.49;98958.31;5075306;28;20654;-71
2023/10/27 02:17:21;;;;;;;16.07;13.27;;;;;;;9.90;96.44;98957.94;5076414;28;20214;-71
2023/10/27 02:19:47;;;;;;;18.00;13.77;;;;;;;9.89;96.48;98957.09;5075283;28;20190;-71
2023/10/27 02:22:14;;;;;;;18.67;14.83;;;;;;;9.91;96.44;98962.25;5075219;28;20194;-71
2023/10/27 02:24:42;;;;;;;19.80;14.57;;;;;;;9.91;96.32;98948.91;5075060;28;20214;-71
2023/10/27 02:27:08;;;;;;;18.23;13.73;;;;;;;9.91;96.43;98960.41;5076485;28;20214;-71
2023/10/27 02:29:35;;;;;;;16.07;12.70;;;;;;;9.93;96.29;98957.56;5076320;28;20190;-71
2023/10/27 02:32:02;;;;;;;21.27;15.43;;;;;;;9.92;96.31;98951.41;5076284;28;20187;-71
2023/10/27 02:34:28;;;;;;;26.87;14.70;;;;;;;9.90;96.30;98948.09;5076235;28;20549;-71
2023/10/27 02:36:55;;;;;;;19.63;13.87;;;;;;;9.90;96.21;98941.91;5076218;28;20289;-71
2023/10/27 02:39:21;;;;;;;20.57;14.23;;;;;;;9.89;96.20;98942.94;5076395;28;20186;-71
2023/10/27 02:41:47;;;;;;;14.53;12.80;;;;;;;9.90;96.27;98939.25;5076938;28;20190;-71
2023/10/27 02:44:14;;;;;;;15.07;12.90;;;;;;;9.92;96.38;98943.41;5076506;28;20206;-71
2023/10/27 02:46:41;;;;;;;20.60;13.83;;;;;;;9.92;96.54;98932.72;5075912;28;20756;-71
2023/10/27 02:49:08;;;;;;;15.70;12.73;;;;;;;9.90;96.59;98931.25;5074921;28;20248;-71
2023/10/27 02:51:34;;;;;;;14.57;12.53;;;;;;;9.92;96.38;98927.38;5075979;28;20218;-71
2023/10/27 02:54:01;;;;;;;17.10;12.17;;;;;;;9.95;96.40;98926.16;5075860;28;20179;-71
2023/10/27 02:56:28;;;;;;;16.00;12.63;;;;;;;9.97;96.54;98927.59;5076198;28;20611;-71
2023/10/27 02:58:54;;;;;;;15.90;12.30;;;;;;;9.99;96.39;98924.75;5075801;28;20198;-71
2023/10/27 03:01:21;;;;;;;13.20;11.93;;;;;;;10.01;96.71;98928.88;5075722;28;20193;-71
2023/10/27 03:03:47;;;;;;;13.50;12.10;;;;;;;10.03;96.70;98928.69;5074344;28;20697;-71
2023/10/27 03:06:14;;;;;;;16.63;13.00;;;;;;;10.04;96.61;98917.84;5075573;28;20301;-71
2023/10/27 03:08:41;;;;;;;17.80;13.00;;;;;;;10.05;96.65;98911.47;5075604;28;20190;-71
2023/10/27 03:11:08;;;;;;;12.50;11.30;;;;;;;10.07;96.60;98897.91;5075623;28;20592;-72
2023/10/27 03:13:35;;;;;;;17.63;12.10;;;;;;;10.08;96.52;98904.91;5074747;28;20631;-72
2023/10/27 03:16:03;;;;;;;19.30;12.40;;;;;;;10.12;96.58;98908.03;5075378;28;20237;-72
2023/10/27 03:18:30;;;;;;;14.53;12.17;;;;;;;10.11;96.51;98899.19;5074170;28;20200;-72
2023/10/27 03:20:58;;;;;;;15.50;11.83;;;;;;;10.12;96.39;98894.69;5075446;28;20187;-72
2023/10/27 03:23:26;;;;;;;13.20;11.17;;;;;;;10.12;96.49;98900.84;5075260;28;20202;-72
2023/10/27 03:25:54;;;;;;;17.87;11.73;;;;;;;10.15;96.62;98891.59;5075709;28;20235;-72
2023/10/27 03:28:21;;;;;;;13.57;12.20;;;;;;;10.14;96.70;98884.63;5074233;28;20195;-72
2023/10/27 03:30:48;;;;;;;15.80;10.33;;;;;;;10.16;96.69;98882.63;5075851;28;20178;-72
2023/10/27 03:33:14;;;;;;;16.60;11.33;;;;;;;10.19;96.65;98899.06;5075684;28;20186;-72
2023/10/27 03:35:42;;;;;;;15.57;10.03;;;;;;;10.18;96.69;98878.75;5075208;28;20187;-72
2023/10/27 03:38:12;;;;;;;10.77;9.97;;;;;;;10.19;96.61;98883.03;5075641;28;20266;-72
2023/10/27 03:40:41;;;;;;;10.30;9.33;;;;;;;10.21;96.59;98882.88;5075624;28;20171;-72
2023/10/27 03:43:09;;;;;;;11.50;9.90;;;;;;;10.22;96.70;98884.53;5075484;28;20193;-72
2023/10/27 03:45:35;;;;;;;10.57;9.63;;;;;;;10.22;96.76;98874.69;5074854;28;20175;-72
2023/10/27 03:48:03;;;;;;;10.00;9.20;;;;;;;10.23;96.67;98883.47;5075068;28;20187;-72
2023/10/27 03:50:29;;;;;;;10.20;9.30;;;;;;;10.24;96.72;98880.63;5075362;28;20191;-72
2023/10/27 03:52:56;;;;;;;17.63;12.63;;;;;;;10.23;96.73;98886.97;5073521;28;20218;-72
2023/10/27 03:55:23;;;;;;;23.77;15.60;;;;;;;10.25;96.96;98881.47;5074676;28;20183;-72
2023/10/27 03:57:50;;;;;;;35.03;20.67;;;;;;;10.24;96.94;98885.13;5074587;28;20214;-72
2023/10/27 04:00:17;;;;;;;45.97;23.47;;;;;;;10.25;96.93;98879.63;5074736;28;20194;-72
2023/10/27 04:02:45;;;;;;;59.93;25.80;;;;;;;10.26;96.83;98880.44;5074583;28;20227;-72
2023/10/27 04:05:12;;;;;;;46.93;23.03;;;;;;;10.24;96.78;98877.97;5074606;28;20211;-72
2023/10/27 04:07:39;;;;;;;40.13;19.77;;;;;;;10.23;96.70;98878.97;5074896;28;20207;-72
2023/10/27 04:10:06;;;;;;;26.93;14.17;;;;;;;10.23;96.84;98872.81;5074446;28;20178;-72
2023/10/27 04:12:32;;;;;;;12.23;10.97;;;;;;;10.23;96.76;98875.47;5074357;28;20228;-72
2023/10/27 04:14:59;;;;;;;10.40;9.40;;;;;;;10.22;96.95;98873.84;5074236;28;20183;-72
2023/10/27 04:17:25;;;;;;;12.47;8.73;;;;;;;10.22;97.04;98873.84;5074045;28;20256;-72
2023/10/27 04:19:52;;;;;;;11.93;10.73;;;;;;;10.22;96.96;98877.34;5074197;28;20186;-72
2023/10/27 04:22:18;;;;;;;17.60;12.37;;;;;;;10.20;96.82;98871.34;5074736;28;20186;-72
2023/10/27 04:24:45;;;;;;;12.80;11.33;;;;;;;10.21;96.92;98872.19;5074073;28;20764;-72
2023/10/27 04:27:11;;;;;;;17.70;11.40;;;;;;;10.21;97.05;98867.66;5074011;28;20581;-72
2023/10/27 04:29:38;;;;;;;12.20;9.77;;;;;;;10.20;96.85;98867.84;5074048;28;20266;-73
2023/10/27 04:32:04;;;;;;;10.47;8.93;;;;;;;10.20;96.88;98863.34;5073987;28;20273;-74
2023/10/27 04:34:31;;;;;;;11.03;10.03;;;;;;;10.19;97.12;98861.69;5074241;28;20185;-73
2023/10/27 04:36:57;;;;;;;13.13;10.83;;;;;;;10.14;97.15;98857.94;5074096;28;20306;-73
2023/10/27 04:39:24;;;;;;;14.37;11.20;;;;;;;10.12;97.36;98865.31;5073985;28;20186;-73
2023/10/27 04:41:50;;;;;;;12.57;11.40;;;;;;;10.11;97.35;98861.81;5073788;28;20198;-73
2023/10/27 04:44:22;;;;;;;18.73;12.93;;;;;;;10.13;97.19;98869.63;5073695;28;20689;-73
2023/10/27 04:46:50;;;;;;;15.67;12.50;;;;;;;10.13;97.12;98858.94;5073925;28;20236;-73
2023/10/27 04:49:18;;;;;;;11.63;10.63;;;;;;;10.13;97.24;98862.44;5073651;28;20194;-73
2023/10/27 04:51:45;;;;;;;15.10;10.37;;;;;;;10.13;97.19;98870.47;5073897;28;20187;-73
2023/10/27 04:54:11;;;;;;;13.07;11.10;;;;;;;10.17;97.14;98870.94;5073858;28;20636;-73
2023/10/27 04:56:38;;;;;;;10.57;9.67;;;;;;;10.19;97.38;98872.38;5073746;28;20619;-73
2023/10/27 04:59:04;;;;;;;18.20;9.77;;;;;;;10.21;97.32;98870.34;5073791;28;20629;-73
2023/10/27 05:01:31;;;;;;;12.13;10.30;;;;;;;10.21;97.26;98864.16;5073485;28;20201;-73
2023/10/27 05:03:57;;;;;;;13.87;10.13;;;;;;;10.22;97.11;98865.84;5073470;28;20225;-74
2023/10/27 05:06:24;;;;;;;17.97;10.93;;;;;;;10.19;97.27;98864.34;5073914;28;20214;-73
2023/10/27 05:08:51;;;;;;;11.53;10.43;;;;;;;10.18;97.47;98868.06;5073658;28;20252;-73
2023/10/27 05:11:18;;;;;;;10.30;9.17;;;;;;;10.18;97.14;98861.91;5073565;28;20198;-73
2023/10/27 05:13:45;;;;;;;14.43;10.40;;;;;;;10.18;97.29;98864.56;5073296;28;20194;-73
2023/10/27 05:16:11;;;;;;;10.40;9.73;;;;;;;10.18;97.30;98854.72;5073034;28;20218;-73
2023/10/27 05:18:38;;;;;;;13.77;11.37;;;;;;;10.16;97.40;98864.75;5073811;28;20218;-73
2023/10/27 05:21:04;;;;;;;19.23;12.70;;;;;;;10.13;97.17;98857.09;5073480;28;20661;-73
2023/10/27 05:23:31;;;;;;;12.87;11.60;;;;;;;10.10;97.42;98860.97;5073638;28;20207;-73
2023/10/27 05:25:57;;;;;;;14.83;10.70;;;;;;;10.10;97.40;98860.16;5073042;28;20293;-70
2023/10/27 05:28:24;;;;;;;14.93;11.13;;;;;;;10.09;97.22;98858.53;5073404;28;20190;-70
2023/10/27 05:30:51;;;;;;;22.87;12.43;;;;;;;10.12;97.24;98863.47;5073383;28;20692;-70
2023/10/27 05:33:18;;;;;;;16.87;12.00;;;;;;;10.12;97.27;98854.63;5073412;28;20228;-70
2023/10/27 05:35:45;;;;;;;16.40;11.97;;;;;;;10.13;97.27;98864.28;5072944;28;20186;-70
2023/10/27 05:38:11;;;;;;;15.27;11.53;;;;;;;10.10;97.32;98860.16;5072586;28;20658;-70
2023/10/27 05:40:38;;;;;;;17.03;12.63;;;;;;;10.10;97.30;98862.81;5073574;28;20201;-70
2023/10/27 05:43:06;;;;;;;13.77;10.50;;;;;;;10.08;97.48;98870.22;5072975;28;20190;-70
2023/10/27 05:45:32;;;;;;;12.43;11.30;;;;;;;10.07;97.41;98863.22;5072869;28;20201;-70
2023/10/27 05:47:59;;;;;;;17.83;12.20;;;;;;;10.07;97.27;98865.88;5073257;28;20244;-70
2023/10/27 05:50:26;;;;;;;15.73;11.30;;;;;;;10.07;97.42;98869.38;5073254;28;20615;-70
2023/10/27 05:52:53;;;;;;;13.90;11.40;;;;;;;10.12;97.35;98863.47;5073426;28;20217;-70
2023/10/27 05:55:19;;;;;;;15.17;12.27;;;;;;;10.08;97.32;98860.34;5073421;28;20673;-70
2023/10/27 05:57:46;;;;;;;14.67;10.67;;;;;;;10.09;97.25;98864.69;5072904;28;20225;-70
2023/10/27 06:00:13;;;;;;;18.70;12.13;;;;;;;10.06;97.30;98867.72;5073133;28;20183;-70
2023/10/27 06:02:39;;;;;;;14.90;11.27;;;;;;;10.04;97.26;98874.28;5072914;28;20182;-70
2023/10/27 06:05:06;;;;;;;18.00;12.87;;;;;;;10.03;97.65;98877.97;5073321;28;20190;-70
2023/10/27 06:07:32;;;;;;;11.90;10.63;;;;;;;10.04;97.35;98877.78;5072786;28;20206;-70
2023/10/27 06:10:00;;;;;;;15.67;11.40;;;;;;;10.03;97.44;98873.47;5073080;28;20622;-70
2023/10/27 06:12:26;;;;;;;12.50;11.40;;;;;;;10.03;97.65;98872.63;5072727;28;20650;-70
2023/10/27 06:14:53;;;;;;;13.00;11.10;;;;;;;10.04;97.59;98874.28;5072704;28;20229;-70
2023/10/27 06:17:19;;;;;;;11.30;10.40;;;;;;;10.05;97.79;98878.63;5072630;28;20226;-70
2023/10/27 06:19:46;;;;;;;13.30;9.73;;;;;;;10.05;97.73;98882.13;5072730;28;20175;-70
2023/10/27 06:22:23;;;;;;;16.33;10.03;;;;;;;10.07;97.55;98885.41;5072682;28;20190;-70
2023/10/27 06:24:50;;;;;;;20.93;11.80;;;;;;;10.06;97.52;98883.75;5072754;28;20211;-70
2023/10/27 06:27:16;;;;;;;14.60;11.60;;;;;;;10.05;97.65;98882.13;5072557;28;20217;-70
2023/10/27 06:29:43;;;;;;;16.07;11.13;;;;;;;10.05;97.67;98884.78;5073412;28;20238;-70
2023/10/27 06:32:10;;;;;;;16.23;10.30;;;;;;;10.07;97.79;98873.91;5072538;28;20186;-70
2023/10/27 06:34:36;;;;;;;17.10;11.80;;;;;;;10.07;97.67;98876.56;5072546;28;20194;-70
2023/10/27 06:37:03;;;;;;;16.40;12.30;;;;;;;10.06;97.54;98880.25;5072633;28;20221;-70
2023/10/27 06:39:29;;;;;;;13.63;12.13;;;;;;;10.04;97.58;98879.63;5072758;28;20179;-70
2023/10/27 06:41:56;;;;;;;24.47;13.97;;;;;;;10.03;97.54;98877.97;5072756;28;20187;-70
2023/10/27 06:44:23;;;;;;;24.47;12.53;;;;;;;10.02;97.75;98876.31;5072439;28;20677;-70
2023/10/27 06:46:50;;;;;;;19.33;12.33;;;;;;;9.97;97.66;98876.88;5072655;28;20206;-70
2023/10/27 06:49:17;;;;;;;13.40;11.10;;;;;;;10.00;97.84;98878.38;5074155;28;20681;-70
2023/10/27 06:51:44;;;;;;;17.50;11.80;;;;;;;10.00;97.67;98876.53;5076183;28;20178;-70
2023/10/27 06:54:10;;;;;;;14.27;11.73;;;;;;;10.00;97.71;98879.19;5075906;28;20183;-70
2023/10/27 06:56:36;;;;;;;18.43;11.77;;;;;;;10.00;97.79;98881.03;5075790;28;20709;-70
2023/10/27 06:59:03;;;;;;;15.57;11.10;;;;;;;10.00;97.92;98878.38;5075805;28;20195;-70
2023/10/27 07:01:30;;;;;;;23.40;11.90;;;;;;;9.99;97.88;98874.88;5075980;28;20650;-70
2023/10/27 07:03:56;;;;;;;15.07;11.33;;;;;;;9.99;97.97;98877.53;5075678;28;20193;-70
2023/10/27 07:06:24;;;;;;;11.80;10.40;;;;;;;10.00;98.04;98878.38;5075629;28;20205;-70
2023/10/27 07:08:51;;;;;;;17.97;11.97;;;;;;;9.97;98.23;98884.09;5075918;28;20190;-70
2023/10/27 07:11:17;;;;;;;14.13;10.47;;;;;;;9.95;98.31;98881.59;5075861;28;20190;-70
2023/10/27 07:13:44;;;;;;;24.63;12.07;;;;;;;9.99;98.21;98882.88;5076113;28;20198;-70
2023/10/27 07:16:10;;;;;;;22.47;11.97;;;;;;;9.98;98.20;98881.22;5075329;28;20272;-71
2023/10/27 07:18:37;;;;;;;16.10;11.77;;;;;;;9.97;98.15;98884.09;5075461;28;20273;-71
2023/10/27 07:21:07;;;;;;;14.43;10.47;;;;;;;9.97;98.21;98881.44;5075406;28;20240;-70
2023/10/27 07:23:35;;;;;;;22.73;11.80;;;;;;;9.98;98.18;98883.88;5075878;28;20186;-70
2023/10/27 07:26:13;;;;;;;16.93;11.80;;;;;;;10.01;98.04;98883.50;5075145;28;20215;-71
2023/10/27 07:28:40;;;;;;;15.60;11.80;;;;;;;10.00;98.19;98886.38;5075853;28;20179;-70
2023/10/27 07:31:08;;;;;;;26.63;11.57;;;;;;;10.04;98.45;98884.97;5075206;28;20274;-70
2023/10/27 07:33:38;;;;;;;17.60;11.63;;;;;;;10.01;98.33;98882.69;5075118;28;20552;-70
2023/10/27 07:36:06;;;;;;;13.33;10.30;;;;;;;10.01;98.41;98883.50;5075361;28;20278;-70
2023/10/27 07:38:34;;;;;;;14.13;11.27;;;;;;;10.03;98.38;98884.13;5075588;28;20197;-70
2023/10/27 07:41:01;;;;;;;16.03;11.63;;;;;;;10.05;98.16;98881.28;5075004;28;20194;-70
2023/10/27 07:43:27;;;;;;;17.27;11.40;;;;;;;10.05;98.35;98889.28;5075565;28;20515;-70
2023/10/27 07:45:54;;;;;;;20.40;11.97;;;;;;;10.05;98.43;98879.44;5074775;28;20301;-70
2023/10/27 07:48:21;;;;;;;23.33;11.03;;;;;;;10.04;98.48;98879.63;5075415;28;20532;-70
2023/10/27 07:50:48;;;;;;;16.13;10.63;;;;;;;10.05;98.74;98878.63;5075046;28;20193;-70
2023/10/27 07:53:14;;;;;;;18.43;11.30;;;;;;;10.06;98.46;98881.06;5074798;28;20657;-70
2023/10/27 07:55:41;;;;;;;12.20;10.60;;;;;;;10.09;98.63;98883.38;5075214;28;20232;-70
2023/10/27 07:58:07;;;;;;;12.37;10.30;;;;;;;10.09;98.64;98871.88;5074691;28;20205;-70
2023/10/27 08:00:34;;;;;;;10.93;9.63;;;;;;;10.10;98.78;98884.19;5074879;28;20586;-70
2023/10/27 08:03:00;;;;;;;17.00;10.40;;;;;;;10.09;98.71;98878.03;5075184;28;20692;-70
2023/10/27 08:05:28;;;;;;;15.43;11.30;;;;;;;10.13;98.88;98882.97;5074381;28;20263;-70
2023/10/27 08:07:55;;;;;;;21.33;10.40;;;;;;;10.15;99.09;98886.25;5074459;28;20595;-70
2023/10/27 08:10:21;;;;;;;18.40;10.00;;;;;;;10.18;98.73;98886.75;5074711;28;20190;-70
2023/10/27 08:12:48;;;;;;;16.47;10.10;;;;;;;10.17;99.00;98885.09;5074750;28;20673;-70
2023/10/27 08:15:14;;;;;;;11.13;10.20;;;;;;;10.16;98.92;98888.78;5074210;28;20182;-70
2023/10/27 08:17:41;;;;;;;22.80;10.77;;;;;;;10.18;98.95;98885.94;5074465;28;20210;-70
2023/10/27 08:20:08;;;;;;;15.90;9.97;;;;;;;10.22;99.34;98895.22;5074495;28;20265;-70
2023/10/27 08:22:35;;;;;;;19.13;10.07;;;;;;;10.25;98.94;98884.97;5074160;28;20182;-70
2023/10/27 08:25:02;;;;;;;13.23;9.70;;;;;;;10.26;99.04;98878.59;5074113;28;20278;-70
2023/10/27 08:27:30;;;;;;;11.77;7.97;;;;;;;10.29;99.03;98883.53;5074063;28;20206;-70
2023/10/27 08:29:57;;;;;;;11.07;9.87;;;;;;;10.28;99.39;98881.88;5074848;28;20576;-70
2023/10/27 08:32:23;;;;;;;16.53;9.10;;;;;;;10.31;99.19;98880.69;5074241;28;20198;-70
2023/10/27 08:34:50;;;;;;;10.83;8.57;;;;;;;10.34;99.03;98878.44;5074246;28;20208;-70
2023/10/27 08:37:16;;;;;;;19.43;8.90;;;;;;;10.39;98.96;98885.88;5073847;28;20282;-70
2023/10/27 08:39:43;;;;;;;9.57;8.37;;;;;;;10.42;99.17;98885.47;5073809;28;20187;-70
2023/10/27 08:42:10;;;;;;;14.47;9.23;;;;;;;10.43;99.23;98879.97;5073801;28;20186;-70
2023/10/27 08:44:38;;;;;;;13.03;8.07;;;;;;;10.46;99.21;98881.41;5074006;28;20256;-70
2023/10/27 08:47:05;;;;;;;14.73;9.10;;;;;;;10.50;98.94;98879.97;5073673;28;20214;-70
2023/10/27 08:49:32;;;;;;;13.10;8.63;;;;;;;10.50;99.13;98880.81;5073697;28;20267;-70
2023/10/27 08:52:02;;;;;;;17.37;8.57;;;;;;;10.54;99.14;98879.41;5073651;28;20200;-70
2023/10/27 08:54:32;;;;;;;8.83;7.93;;;;;;;10.56;99.12;98881.06;5073640;28;20171;-70
2023/10/27 08:56:58;;;;;;;9.73;8.77;;;;;;;10.59;99.04;98883.31;5073498;28;20202;-70
2023/10/27 08:59:25;;;;;;;11.57;9.17;;;;;;;10.63;99.01;98882.75;5073697;28;20194;-70
2023/10/27 09:01:53;;;;;;;17.23;8.90;;;;;;;10.64;98.73;98883.56;5073587;28;20190;-70
2023/10/27 09:04:23;;;;;;;9.93;8.37;;;;;;;10.58;98.89;98885.16;5073673;28;20214;-69
2023/10/27 09:06:50;;;;;;;13.00;9.27;;;;;;;10.54;99.17;98881.25;5073310;28;20205;-70
2023/10/27 09:09:18;;;;;;;13.17;8.30;;;;;;;10.57;99.35;98878.16;5073394;28;20194;-70
2023/10/27 09:11:48;;;;;;;10.37;9.30;;;;;;;10.59;99.48;98880.66;5072779;28;20187;-70
2023/10/27 09:14:22;;;;;;;14.17;8.67;;;;;;;10.60;99.23;98883.13;5073304;28;20191;-70
2023/10/27 09:16:51;;;;;;;11.37;7.20;;;;;;;10.64;99.04;98875.56;5073253;28;20209;-70
2023/10/27 09:19:26;;;;;;;8.30;7.00;;;;;;;10.65;99.14;98878.00;5073531;28;20565;-70
2023/10/27 09:21:53;;;;;;;8.00;7.20;;;;;;;10.66;99.23;98879.66;5073305;28;20181;-69
2023/10/27 09:24:29;;;;;;;10.73;7.23;;;;;;;10.65;99.51;98879.88;5073249;28;20186;-69
2023/10/27 09:26:57;;;;;;;7.73;7.20;;;;;;;10.69;99.26;98878.47;5073160;28;20693;-70
2023/10/27 09:29:24;;;;;;;11.27;7.60;;;;;;;10.66;99.35;98879.66;5073139;28;20247;-70
2023/10/27 09:31:51;;;;;;;6.10;5.53;;;;;;;10.66;99.09;98873.50;5073197;28;20257;-69
2023/10/27 09:34:25;;;;;;;6.20;5.63;;;;;;;10.66;99.18;98882.34;5073138;28;20190;-69
2023/10/27 09:36:55;;;;;;;12.27;6.93;;;;;;;10.66;99.43;98884.19;5073102;28;20206;-70
2023/10/27 09:39:23;;;;;;;5.90;5.50;;;;;;;10.67;99.59;98880.50;5073730;28;20183;-70
2023/10/27 09:41:56;;;;;;;6.67;6.13;;;;;;;10.66;99.40;98886.84;5073082;28;20190;-70
2023/10/27 09:44:33;;;;;;;6.37;5.77;;;;;;;10.64;99.58;98876.38;5073041;28;20256;-70
2023/10/27 09:47:02;;;;;;;6.23;5.83;;;;;;;10.65;99.62;98878.00;5073791;28;20255;-71
2023/10/27 09:49:35;;;;;;;5.10;4.70;;;;;;;10.73;99.29;98888.56;5073007;28;20239;-71
2023/10/27 09:52:09;;;;;;;7.70;6.27;;;;;;;10.76;99.16;98884.66;5073279;28;20265;-71
2023/10/27 09:54:37;;;;;;;8.37;5.43;;;;;;;10.76;99.41;98884.66;5073280;28;20206;-71
2023/10/27 09:57:04;;;;;;;5.77;5.57;;;;;;;10.70;99.26;98891.59;5072892;28;20206;-71
2023/10/27 09:59:31;;;;;;;4.90;4.27;;;;;;;10.72;99.24;98896.75;5073117;28;20205;-71
2023/10/27 10:02:05;;;;;;;4.20;4.03;;;;;;;10.76;99.33;98887.34;5073071;28;20179;-71
2023/10/27 10:04:50;;;;;;;4.17;4.07;;;;;;;10.81;98.93;98885.72;5073427;28;20511;-71
2023/10/27 10:07:37;;;;;;;5.00;4.70;;;;;;;10.92;99.00;98889.66;5072834;28;20241;-73
2023/10/27 10:10:30;;;;;;;5.47;4.87;;;;;;;11.00;97.82;98898.34;5073320;28;20181;-73
2023/10/27 10:13:01;;;;;;;5.73;5.30;;;;;;;11.09;97.59;98890.16;5073042;28;20539;-73
2023/10/27 10:15:29;;;;;;;5.37;5.27;;;;;;;11.03;97.94;98889.13;5072808;28;20630;-73
2023/10/27 10:17:57;;;;;;;7.07;6.23;;;;;;;11.08;97.81;98891.16;5073302;28;20183;-73
2023/10/27 10:20:41;;;;;;;6.37;5.93;;;;;;;11.10;97.80;98899.81;5072724;28;20187;-73
2023/10/27 10:23:08;;;;;;;6.50;6.20;;;;;;;11.16;97.47;98904.41;5074598;28;20186;-73
2023/10/27 10:25:36;;;;;;;6.07;5.50;;;;;;;11.22;97.10;98900.91;5076249;28;20214;-73
2023/10/27 10:28:08;;;;;;;6.23;5.80;;;;;;;11.22;96.85;98906.25;5076913;28;20182;-73
2023/10/27 10:30:40;;;;;;;6.80;6.23;;;;;;;11.22;97.39;98911.59;5076610;28;20277;-73
2023/10/27 10:33:14;;;;;;;6.13;5.80;;;;;;;11.25;97.48;98908.50;5076344;28;20176;-73
2023/10/27 10:35:42;;;;;;;6.20;5.93;;;;;;;11.24;96.93;98915.75;5076411;28;20655;-73
2023/10/27 10:38:23;;;;;;;6.40;6.10;;;;;;;11.20;97.00;98911.78;5076790;28;20273;-73
2023/10/27 10:40:54;;;;;;;8.77;5.80;;;;;;;11.32;96.26;98912.06;5076747;28;20195;-74
2023/10/27 10:43:24;;;;;;;6.60;6.40;;;;;;;11.20;96.42;98911.78;5076470;28;20175;-73
2023/10/27 10:45:53;;;;;;;7.13;6.70;;;;;;;11.22;96.10;98901.72;5076178;28;20218;-73
2023/10/27 10:48:25;;;;;;;6.90;6.47;;;;;;;11.19;96.16;98912.00;5076025;28;20190;-73
2023/10/27 10:50:55;;;;;;;6.30;5.90;;;;;;;11.18;96.01;98911.19;5076327;28;20261;-73
2023/10/27 10:53:24;;;;;;;6.80;6.40;;;;;;;11.21;95.79;98905.41;5076225;28;20554;-73
2023/10/27 10:55:56;;;;;;;6.73;6.33;;;;;;;11.20;96.08;98909.13;5075832;28;20213;-73
2023/10/27 10:58:27;;;;;;;7.47;6.30;;;;;;;11.23;96.29;98907.91;5076109;28;20635;-73
2023/10/27 11:00:56;;;;;;;7.00;6.50;;;;;;;11.31;95.88;98911.22;5076624;28;20175;-73
2023/10/27 11:03:25;;;;;;;7.60;7.10;;;;;;;11.28;96.26;98906.28;5075725;28;20570;-73
2023/10/27 11:05:54;;;;;;;9.07;7.97;;;;;;;11.37;95.68;98910.41;5076373;28;20678;-73
2023/10/27 11:08:24;;;;;;;8.37;7.97;;;;;;;11.34;96.11;98905.47;5076144;28;20171;-75
2023/10/27 11:11:14;;;;;;;8.37;7.47;;;;;;;11.30;96.61;98914.09;5075896;28;20190;-74
2023/10/27 11:13:45;;;;;;;8.83;8.23;;;;;;;11.34;96.75;98907.31;5075836;28;20619;-74
2023/10/27 11:16:26;;;;;;;8.97;7.53;;;;;;;11.41;96.31;98906.31;5074400;28;20622;-74
2023/10/27 11:18:57;;;;;;;8.23;7.73;;;;;;;11.48;96.14;98909.03;5075785;28;20175;-74
2023/10/27 11:21:26;;;;;;;8.57;8.00;;;;;;;11.49;95.87;98907.16;5075986;28;20532;-74
2023/10/27 11:23:54;;;;;;;8.60;8.00;;;;;;;11.50;96.53;98912.31;5074285;28;20673;-74
2023/10/27 11:26:23;;;;;;;7.93;7.37;;;;;;;11.62;96.17;98917.91;5075771;28;20623;-73